TimeEST,TemperatureF,Dew PointF,Humidity,Sea Level PressureIn,VisibilityMPH,Wind Direction,Wind SpeedMPH,Gust SpeedMPH,PrecipitationIn,Events,Conditions,WindDirDegrees,DateUTC
12:53 AM,48.9,32.0,52,30.10,10.0,North,13.8,-,N/A,,Clear,350,2013-11-08 05:53:00
1:53 AM,48.0,32.0,54,30.12,10.0,NNW,10.4,-,N/A,,Clear,340,2013-11-08 06:53:00
2:53 AM,46.0,32.0,58,30.15,10.0,North,9.2,19.6,N/A,,Clear,350,2013-11-08 07:53:00
3:53 AM,45.0,32.0,60,30.17,10.0,North,10.4,-,N/A,,Clear,10,2013-11-08 08:53:00
4:53 AM,42.1,32.0,67,30.20,10.0,North,6.9,-,N/A,,Clear,10,2013-11-08 09:53:00
5:53 AM,39.9,32.0,73,30.22,10.0,North,3.5,-,N/A,,Clear,10,2013-11-08 10:53:00
6:53 AM,39.9,32.0,73,30.23,10.0,North,3.5,-,N/A,,Clear,350,2013-11-08 11:53:00
7:53 AM,44.1,33.1,65,30.26,10.0,North,6.9,-,N/A,,Clear,360,2013-11-08 12:53:00
8:53 AM,48.9,30.0,48,30.27,10.0,North,10.4,-,N/A,,Clear,10,2013-11-08 13:53:00
9:53 AM,52.0,28.0,40,30.28,10.0,North,10.4,-,N/A,,Clear,10,2013-11-08 14:53:00
10:53 AM,55.0,28.0,35,30.27,10.0,NNW,13.8,-,N/A,,Clear,340,2013-11-08 15:53:00
11:53 AM,57.0,26.1,30,30.26,10.0,NNW,8.1,-,N/A,,Clear,330,2013-11-08 16:53:00
12:53 PM,59.0,24.1,26,30.22,10.0,NNW,6.9,-,N/A,,Clear,330,2013-11-08 17:53:00
1:53 PM,60.1,25.0,26,30.20,10.0,NNW,9.2,16.1,N/A,,Clear,330,2013-11-08 18:53:00
2:53 PM,60.1,25.0,26,30.20,10.0,NNW,11.5,-,N/A,,Clear,340,2013-11-08 19:53:00
3:53 PM,59.0,25.0,27,30.21,10.0,NNW,5.8,-,N/A,,Clear,340,2013-11-08 20:53:00
4:53 PM,55.9,26.1,32,30.23,10.0,NNW,5.8,-,N/A,,Clear,330,2013-11-08 21:53:00
5:53 PM,51.1,27.0,39,30.25,10.0,NNW,6.9,-,N/A,,Clear,340,2013-11-08 22:53:00
6:53 PM,48.0,28.9,48,30.26,10.0,Calm,Calm,-,N/A,,Clear,0,2013-11-08 23:53:00
7:53 PM,46.0,32.0,58,30.27,10.0,Calm,Calm,-,N/A,,Clear,0,2013-11-09 00:53:00
8:53 PM,43.0,30.0,60,30.29,10.0,North,4.6,-,N/A,,Clear,360,2013-11-09 01:53:00
9:53 PM,39.9,30.9,70,30.30,10.0,Calm,Calm,-,N/A,,Clear,0,2013-11-09 02:53:00
10:53 PM,37.0,32.0,82,30.30,10.0,NNE,3.5,-,N/A,,Clear,30,2013-11-09 03:53:00
11:53 PM,37.9,33.1,83,30.31,10.0,NNE,3.5,-,N/A,,Clear,20,2013-11-09 04:53:00